createdAt,value
2022-08-12T00:00:35.096Z,94647.69
2022-08-12T00:03:21.029Z,94647.91
2022-08-12T00:06:06.757Z,94643.44
2022-08-12T00:08:52.967Z,94646.63
2022-08-12T00:11:39.096Z,94657.78
2022-08-12T00:14:24.626Z,94661.84
2022-08-12T00:17:09.923Z,94658.66
2022-08-12T00:19:55.375Z,94654.09
2022-08-12T00:22:40.897Z,94658.63
2022-08-12T00:26:18.991Z,94650.38
2022-08-12T00:28:31.618Z,94642.91
2022-08-12T00:31:16.724Z,94643.72
2022-08-12T00:34:01.761Z,94644.28
2022-08-12T00:36:50.298Z,94650.59
2022-08-12T00:39:36.059Z,94638.38
2022-08-12T00:42:11.866Z,94641.06
2022-08-12T00:44:40.246Z,94644.19
2022-08-12T00:47:09.439Z,94638.34
2022-08-12T00:49:52.120Z,94641.75
2022-08-12T00:52:19.275Z,94639.44
2022-08-12T00:54:46.802Z,94635.16
2022-08-12T00:57:15.853Z,94638.28
2022-08-12T00:59:54.063Z,94648.13
2022-08-12T01:02:25.824Z,94649.72
2022-08-12T01:05:33.023Z,94646.31
2022-08-12T01:08:18.493Z,94646.81
2022-08-12T01:11:04.458Z,94646.00
2022-08-12T01:13:33.037Z,94649.97
2022-08-12T01:16:01.318Z,94652.16
2022-08-12T01:18:29.240Z,94653.75
2022-08-12T01:21:13.002Z,94656.41
2022-08-12T01:24:30.159Z,94659.06
2022-08-12T01:26:59.000Z,94658.78
2022-08-12T01:29:33.574Z,94659.00
2022-08-12T01:32:05.226Z,94657.94
2022-08-12T01:34:36.122Z,94657.97
2022-08-12T01:37:05.121Z,94648.19
2022-08-12T01:40:31.466Z,94652.94
2022-08-12T01:42:43.558Z,94654.75
2022-08-12T01:45:12.326Z,94654.28
2022-08-12T01:47:43.174Z,94645.72
2022-08-12T01:50:21.763Z,94656.38
2022-08-12T01:52:54.502Z,94653.09
2022-08-12T01:55:23.675Z,94651.56
2022-08-12T01:57:59.065Z,94645.91
2022-08-12T02:00:45.967Z,94644.84
2022-08-12T02:03:58.721Z,94648.50
2022-08-12T02:07:07.797Z,94644.47
2022-08-12T02:10:09.786Z,94645.63
2022-08-12T02:13:48.906Z,94645.00
2022-08-12T02:16:54.030Z,94642.88
2022-08-12T02:19:42.276Z,94647.66
2022-08-12T02:22:28.843Z,94639.16
2022-08-12T02:25:10.875Z,94645.56
2022-08-12T02:27:39.671Z,94643.41
2022-08-12T02:30:10.475Z,94648.19
2022-08-12T02:32:39.330Z,94645.78
2022-08-12T02:35:17.469Z,94646.09
2022-08-12T02:37:44.227Z,94643.94
2022-08-12T02:40:12.381Z,94645.56
2022-08-12T02:42:43.043Z,94642.91
2022-08-12T02:45:09.828Z,94648.25
2022-08-12T02:48:00.049Z,94649.00
2022-08-12T02:50:28.177Z,94647.13
2022-08-12T02:52:55.675Z,94643.13
2022-08-12T02:55:28.151Z,94634.38
2022-08-12T02:57:55.655Z,94639.75
2022-08-12T03:00:23.386Z,94640.78
2022-08-12T03:02:51.101Z,94643.66
2022-08-12T03:05:17.795Z,94642.28
2022-08-12T03:07:59.393Z,94647.38
2022-08-12T03:10:37.226Z,94646.81
2022-08-12T03:13:04.648Z,94651.09
2022-08-12T03:15:31.355Z,94641.22
2022-08-12T03:18:25.457Z,94641.22
2022-08-12T03:20:51.240Z,94649.22
2022-08-12T03:23:29.171Z,94643.88
2022-08-12T03:25:58.948Z,94646.06
2022-08-12T03:28:44.611Z,94650.56
2022-08-12T03:31:11.327Z,94650.78
2022-08-12T03:33:39.995Z,94652.91
2022-08-12T03:36:07.674Z,94657.72
2022-08-12T03:38:40.418Z,94659.31
2022-08-12T03:41:35.319Z,94658.25
2022-08-12T03:44:25.838Z,94666.75
2022-08-12T03:47:25.960Z,94655.53
2022-08-12T03:50:11.043Z,94663.59
2022-08-12T03:52:56.160Z,94659.28
2022-08-12T03:55:41.519Z,94662.78
2022-08-12T03:58:27.084Z,94664.16
2022-08-12T04:00:53.790Z,94666.75
2022-08-12T04:03:41.406Z,94667.28
2022-08-12T04:06:11.377Z,94667.19
2022-08-12T04:08:38.111Z,94672.50
2022-08-12T04:11:23.504Z,94666.66
2022-08-12T04:13:51.428Z,94676.22
2022-08-12T04:16:18.071Z,94669.69
2022-08-12T04:18:44.664Z,94665.47
2022-08-12T04:21:11.464Z,94671.81
2022-08-12T04:23:48.254Z,94668.09
2022-08-12T04:26:15.407Z,94670.16
2022-08-12T04:28:42.042Z,94673.63
2022-08-12T04:31:09.399Z,94670.09
2022-08-12T04:33:36.138Z,94668.56
2022-08-12T04:36:02.948Z,94669.75
2022-08-12T04:38:29.675Z,94666.59
2022-08-12T04:40:56.491Z,94670.81
2022-08-12T04:43:59.944Z,94660.72
2022-08-12T04:46:14.471Z,94661.81
2022-08-12T04:48:41.457Z,94661.28
2022-08-12T04:51:08.112Z,94656.28
2022-08-12T04:53:34.751Z,94653.63
2022-08-12T04:56:01.402Z,94659.44
2022-08-12T04:58:29.667Z,94657.91
2022-08-12T05:00:56.826Z,94656.88
2022-08-12T05:03:25.572Z,94657.13
2022-08-12T05:05:52.482Z,94655.53
2022-08-12T05:08:19.520Z,94655.34
2022-08-12T05:10:49.721Z,94651.81
2022-08-12T05:13:19.330Z,94665.03
2022-08-12T05:16:03.652Z,94660.97
2022-08-12T05:18:39.770Z,94668.28
2022-08-12T05:21:10.129Z,94669.75
2022-08-12T05:23:37.482Z,94663.88
2022-08-12T05:26:04.998Z,94670.25
2022-08-12T05:28:31.966Z,94673.97
2022-08-12T05:30:58.785Z,94674.53
2022-08-12T05:33:37.741Z,94674.06
2022-08-12T05:36:08.714Z,94672.47
2022-08-12T05:38:54.211Z,94680.94
2022-08-12T05:41:21.107Z,94676.25
2022-08-12T05:43:58.595Z,94681.31
2022-08-12T05:46:25.919Z,94681.63
2022-08-12T05:48:55.553Z,94683.09
2022-08-12T05:51:24.759Z,94683.84
2022-08-12T05:53:56.749Z,94673.63
2022-08-12T05:56:30.069Z,94679.38
2022-08-12T05:58:57.366Z,94682.31
2022-08-12T06:02:10.591Z,94686.72
2022-08-12T06:04:11.233Z,94680.94
2022-08-12T06:06:42.256Z,94686.34
2022-08-12T06:09:12.259Z,94679.97
2022-08-12T06:11:53.619Z,94675.25
2022-08-12T06:14:28.149Z,94686.47
2022-08-12T06:16:55.197Z,94680.13
2022-08-12T06:19:23.993Z,94681.19
2022-08-12T06:22:12.073Z,94683.63
2022-08-12T06:24:38.744Z,94685.50
2022-08-12T06:27:05.443Z,94683.91
2022-08-12T06:30:09.805Z,94679.66
2022-08-12T06:32:18.691Z,94675.91
2022-08-12T06:35:25.182Z,94673.78
2022-08-12T06:37:40.003Z,94680.22
2022-08-12T06:40:08.577Z,94679.72
2022-08-12T06:42:52.387Z,94687.75
2022-08-12T06:45:19.129Z,94682.41
2022-08-12T06:47:46.450Z,94677.38
2022-08-12T06:50:15.849Z,94672.84
2022-08-12T06:52:43.443Z,94680.31
2022-08-12T06:55:20.749Z,94672.81
2022-08-12T06:58:05.341Z,94682.94
2022-08-12T07:00:34.188Z,94674.94
2022-08-12T07:03:16.633Z,94677.59
2022-08-12T07:05:51.078Z,94670.94
2022-08-12T07:08:18.005Z,94671.75
2022-08-12T07:10:59.191Z,94679.75
2022-08-12T07:13:35.832Z,94677.38
2022-08-12T07:16:22.533Z,94677.13
2022-08-12T07:18:50.500Z,94675.53
2022-08-12T07:21:17.430Z,94681.94
2022-08-12T07:23:44.067Z,94673.91
2022-08-12T07:26:17.066Z,94676.59
2022-08-12T07:28:44.051Z,94667.56
2022-08-12T07:31:12.393Z,94666.50
2022-08-12T07:33:44.067Z,94664.38
2022-08-12T07:36:13.909Z,94668.91
2022-08-12T07:38:43.923Z,94666.22
2022-08-12T07:41:31.609Z,94670.81
2022-08-12T07:44:04.843Z,94660.63
2022-08-12T07:46:36.891Z,94655.31
2022-08-12T07:49:06.703Z,94652.94
2022-08-12T07:51:33.960Z,94647.59
2022-08-12T07:54:03.095Z,94654.28
2022-08-12T07:56:31.306Z,94651.38
2022-08-12T07:58:59.289Z,94645.25
2022-08-12T08:01:26.391Z,94658.03
2022-08-12T08:04:18.494Z,94660.16
2022-08-12T08:06:45.721Z,94647.88
2022-08-12T08:09:14.652Z,94644.16
2022-08-12T08:12:00.148Z,94648.94
2022-08-12T08:14:29.129Z,94649.53
2022-08-12T08:16:56.788Z,94645.25
2022-08-12T08:19:29.048Z,94646.28
2022-08-12T08:21:56.611Z,94650.56
2022-08-12T08:24:24.650Z,94634.56
2022-08-12T08:26:52.526Z,94635.66
2022-08-12T08:29:21.510Z,94634.03
2022-08-12T08:31:50.840Z,94639.38
2022-08-12T08:34:33.630Z,94636.72
2022-08-12T08:37:07.763Z,94628.97
2022-08-12T08:39:37.325Z,94629.25
2022-08-12T08:42:22.559Z,94628.69
2022-08-12T08:44:50.357Z,94625.00
2022-08-12T08:47:24.818Z,94628.97
2022-08-12T08:49:53.891Z,94626.31
2022-08-12T08:52:39.836Z,94617.78
2022-08-12T08:55:14.173Z,94615.91
2022-08-12T08:57:43.168Z,94621.22
2022-08-12T09:00:20.433Z,94639.91
2022-08-12T09:02:48.764Z,94618.84
2022-08-12T09:05:25.382Z,94614.31
2022-08-12T09:07:59.094Z,94615.38
2022-08-12T09:10:39.124Z,94611.09
2022-08-12T09:16:21.395Z,94600.94
2022-08-12T09:21:54.151Z,94606.81
2022-08-12T09:24:23.531Z,94606.03
2022-08-12T09:26:54.557Z,94599.34
2022-08-12T09:30:10.585Z,94609.50
2022-08-12T09:32:11.559Z,94609.50
2022-08-12T09:34:56.606Z,94606.28
2022-08-12T09:37:26.648Z,94607.06
2022-08-12T09:40:06.479Z,94598.81
2022-08-12T09:43:17.607Z,94598.28
2022-08-12T09:46:11.712Z,94600.94
2022-08-12T09:48:39.419Z,94595.84
2022-08-12T09:51:22.236Z,94596.66
2022-08-12T09:54:08.804Z,94600.94
2022-08-12T09:56:59.709Z,94596.94
2022-08-12T10:00:12.798Z,94590.50
2022-08-12T10:02:42.010Z,94580.66
2022-08-12T10:04:59.582Z,94588.63
2022-08-12T10:07:28.685Z,94586.50
2022-08-12T10:10:22.879Z,94582.22
2022-08-12T10:13:13.759Z,94585.72
2022-08-12T10:16:02.459Z,94579.03
2022-08-12T10:18:32.796Z,94576.38
2022-08-12T10:21:06.028Z,94569.44
2022-08-12T10:23:40.433Z,94559.78
2022-08-12T10:26:38.035Z,94572.09
2022-08-12T10:30:03.196Z,94563.53
2022-08-12T10:32:45.174Z,94557.66
2022-08-12T10:35:09.114Z,94553.09
2022-08-12T10:38:37.371Z,94552.31
2022-08-12T10:40:28.693Z,94552.06
2022-08-12T10:43:16.691Z,94546.72
2022-08-12T10:45:43.925Z,94551.25
2022-08-12T10:48:21.555Z,94549.09
2022-08-12T10:51:01.524Z,94548.31
2022-08-12T10:53:45.927Z,94546.94
2022-08-12T10:56:16.676Z,94544.56
2022-08-12T10:58:45.841Z,94547.75
2022-08-12T11:01:25.967Z,94543.22
2022-08-12T11:04:31.670Z,94539.47
2022-08-12T11:07:07.910Z,94539.47
2022-08-12T11:09:51.366Z,94528.00
2022-08-12T11:12:55.610Z,94532.00
2022-08-12T11:15:18.796Z,94537.34
2022-08-12T11:17:53.235Z,94537.34
2022-08-12T11:20:30.863Z,94533.06
2022-08-12T11:23:04.188Z,94530.94
2022-08-12T11:25:57.381Z,94530.63
2022-08-12T11:28:33.874Z,94526.09
2022-08-12T11:31:02.559Z,94516.50
2022-08-12T11:34:04.728Z,94519.16
2022-08-12T11:36:16.219Z,94520.75
2022-08-12T11:38:43.054Z,94520.75
2022-08-12T11:41:27.962Z,94511.69
2022-08-12T11:44:29.108Z,94516.22
2022-08-12T11:46:51.479Z,94517.03
2022-08-12T11:49:32.228Z,94520.22
2022-08-12T11:52:01.008Z,94518.63
2022-08-12T11:54:29.657Z,94524.78
2022-08-12T11:56:59.402Z,94517.53
2022-08-12T12:02:18.815Z,94519.13
2022-08-12T12:04:46.964Z,94511.13
2022-08-12T12:07:22.553Z,94508.47
2022-08-12T12:09:51.884Z,94514.31
2022-08-12T12:12:19.896Z,94510.56
2022-08-12T12:14:55.002Z,94506.84
2022-08-12T12:17:25.556Z,94513.81
2022-08-12T12:19:53.252Z,94510.09
2022-08-12T12:22:23.647Z,94506.34
2022-08-12T12:24:58.090Z,94501.78
2022-08-12T12:28:03.983Z,94501.00
2022-08-12T12:30:18.173Z,94504.19
2022-08-12T12:32:56.059Z,94507.38
2022-08-12T12:36:19.770Z,94498.56
2022-08-12T12:38:11.898Z,94500.97
2022-08-12T12:40:44.122Z,94495.09
2022-08-12T12:43:12.293Z,94494.56
2022-08-12T12:45:39.584Z,94491.91
2022-08-12T12:48:12.204Z,94486.56
2022-08-12T12:50:45.151Z,94479.63
2022-08-12T12:54:06.304Z,94479.63
2022-08-12T12:55:59.307Z,94467.34
2022-08-12T12:58:25.922Z,94473.75
2022-08-12T13:00:53.921Z,94467.84
2022-08-12T13:03:21.929Z,94465.75
2022-08-12T13:05:53.806Z,94468.94
2022-08-12T13:08:28.445Z,94466.25
2022-08-12T13:11:04.030Z,94468.94
2022-08-12T13:14:07.524Z,94476.91
2022-08-12T13:16:22.479Z,94469.97
2022-08-12T13:18:49.897Z,94461.97
2022-08-12T13:21:33.627Z,94474.81
2022-08-12T13:24:10.343Z,94460.41
2022-08-12T13:26:40.094Z,94465.19
2022-08-12T13:29:11.590Z,94451.81
2022-08-12T13:31:46.362Z,94465.19
2022-08-12T13:34:34.556Z,94474.81
2022-08-12T13:37:09.868Z,94472.13
2022-08-12T13:39:37.423Z,94469.50
2022-08-12T13:42:14.300Z,94465.75
2022-08-12T13:44:43.637Z,94474.28
2022-08-12T13:47:19.696Z,94465.19
2022-08-12T13:49:56.289Z,94474.53
2022-08-12T13:52:26.319Z,94451.06
2022-08-12T13:54:56.324Z,94461.47
2022-08-12T13:57:23.442Z,94463.59
2022-08-12T13:59:55.055Z,94459.59
2022-08-12T14:02:24.344Z,94471.56
2022-08-12T14:04:56.285Z,94466.25
2022-08-12T14:07:26.098Z,94478.53
2022-08-12T14:10:20.590Z,94476.91
2022-08-12T14:12:54.383Z,94468.38
2022-08-12T14:15:35.098Z,94476.91
2022-08-12T14:18:10.960Z,94477.47
2022-08-12T14:20:40.026Z,94473.72
2022-08-12T14:24:01.437Z,94473.22
2022-08-12T14:25:53.809Z,94473.72
2022-08-12T14:28:23.331Z,94471.88
2022-08-12T14:34:00.263Z,94466.25
2022-08-12T14:36:31.805Z,94467.34
2022-08-12T14:38:59.162Z,94469.72
2022-08-12T14:41:36.888Z,94463.59
2022-08-12T14:45:00.020Z,94464.38
2022-08-12T14:47:00.688Z,94469.97
2022-08-12T14:50:33.873Z,94470.78
2022-08-12T14:53:11.426Z,94471.34
2022-08-12T14:57:56.698Z,94463.03
2022-08-12T15:00:50.837Z,94461.44
2022-08-12T15:03:23.311Z,94458.50
2022-08-12T15:06:06.225Z,94453.44
2022-08-12T15:08:38.896Z,94455.84
2022-08-12T15:11:14.236Z,94450.50
2022-08-12T15:13:46.009Z,94446.47
2022-08-12T15:16:12.871Z,94451.03
2022-08-12T15:18:39.672Z,94442.75
2022-08-12T15:21:22.176Z,94443.28
2022-08-12T15:23:55.572Z,94440.63
2022-08-12T15:26:27.415Z,94429.94
2022-08-12T15:28:56.558Z,94421.91
2022-08-12T15:31:27.918Z,94424.59
2022-08-12T15:33:57.930Z,94424.56
2022-08-12T15:36:53.980Z,94428.34
2022-08-12T15:39:16.915Z,94422.75
2022-08-12T15:41:49.554Z,94415.56
2022-08-12T15:44:38.735Z,94417.16
2022-08-12T15:47:04.684Z,94423.00
2022-08-12T15:49:54.357Z,94416.59
2022-08-12T15:52:27.444Z,94424.06
2022-08-12T15:54:58.883Z,94419.53
2022-08-12T15:57:26.887Z,94420.31
2022-08-12T16:00:04.128Z,94416.03
2022-08-12T16:02:41.869Z,94416.56
2022-08-12T16:06:11.458Z,94417.63
2022-08-12T16:08:05.777Z,94420.31
2022-08-12T16:10:33.163Z,94414.97
2022-08-12T16:13:04.564Z,94418.16
2022-08-12T16:15:35.454Z,94423.00
2022-08-12T16:18:09.029Z,94417.66
2022-08-12T16:20:52.098Z,94410.69
2022-08-12T16:23:26.765Z,94416.03
2022-08-12T16:26:15.359Z,94409.06
2022-08-12T16:28:47.756Z,94418.16
2022-08-12T16:31:22.612Z,94413.91
2022-08-12T16:33:56.310Z,94417.09
2022-08-12T16:36:25.807Z,94413.34
2022-08-12T16:38:52.666Z,94421.88
2022-08-12T16:41:19.267Z,94420.81
2022-08-12T16:43:46.818Z,94420.81
2022-08-12T16:46:32.401Z,94421.63
2022-08-12T16:49:04.224Z,94422.66
2022-08-12T16:51:46.109Z,94421.31
2022-08-12T16:54:16.186Z,94422.41
2022-08-12T16:56:55.457Z,94426.16
2022-08-12T16:59:25.567Z,94426.66
2022-08-12T17:01:53.823Z,94425.88
2022-08-12T17:04:20.662Z,94421.31
2022-08-12T17:06:52.605Z,94417.56
2022-08-12T17:10:36.334Z,94422.91
2022-08-12T17:13:10.258Z,94415.97
2022-08-12T17:15:57.898Z,94421.31
2022-08-12T17:18:42.919Z,94421.84
2022-08-12T17:21:11.926Z,94423.72
2022-08-12T17:23:48.670Z,94415.97
2022-08-12T17:26:22.208Z,94415.72
2022-08-12T17:28:52.434Z,94422.16
2022-08-12T17:31:53.128Z,94420.28
2022-08-12T17:34:07.028Z,94421.06
2022-08-12T17:36:44.211Z,94424.00
2022-08-12T17:39:15.658Z,94419.72
2022-08-12T17:41:56.712Z,94418.66
2022-08-12T17:44:24.159Z,94415.19
2022-08-12T17:46:53.884Z,94422.91
2022-08-12T17:50:02.877Z,94428.25
2022-08-12T17:52:08.197Z,94429.84
2022-08-12T17:54:36.773Z,94419.16
2022-08-12T17:57:16.050Z,94426.09
2022-08-12T17:59:47.670Z,94431.53
2022-08-12T18:02:17.316Z,94435.88
2022-08-12T18:05:09.714Z,94437.97
2022-08-12T18:07:37.121Z,94438.50
2022-08-12T18:10:06.792Z,94439.03
2022-08-12T18:12:48.768Z,94439.03
2022-08-12T18:15:26.590Z,94445.16
2022-08-12T18:18:06.287Z,94444.38
2022-08-12T18:20:45.023Z,94451.31
2022-08-12T18:23:14.797Z,94447.56
2022-08-12T18:26:15.237Z,94447.56
2022-08-12T18:28:43.797Z,94449.44
2022-08-12T18:31:14.469Z,94439.03
2022-08-12T18:33:46.042Z,94448.13
2022-08-12T18:36:13.553Z,94445.97
2022-08-12T18:38:40.460Z,94445.97
2022-08-12T18:41:33.572Z,94434.78
2022-08-12T18:44:09.456Z,94448.13
2022-08-12T18:46:55.892Z,94450.28
2022-08-12T18:49:29.388Z,94446.53
2022-08-12T18:52:03.853Z,94452.94
2022-08-12T18:54:34.159Z,94450.78
2022-08-12T18:57:03.725Z,94457.22
2022-08-12T19:00:00.971Z,94460.97
2022-08-12T19:02:22.554Z,94457.78
2022-08-12T19:04:51.481Z,94454.38
2022-08-12T19:07:21.981Z,94469.56
2022-08-12T19:09:58.634Z,94453.81
2022-08-12T19:12:56.873Z,94449.31
2022-08-12T19:15:25.711Z,94455.97
2022-08-12T19:18:00.448Z,94457.06
2022-08-12T19:20:34.316Z,94461.56
2022-08-12T19:23:07.203Z,94460.47
2022-08-12T19:26:00.235Z,94462.06
2022-08-12T19:28:30.391Z,94460.72
2022-08-12T19:31:55.542Z,94453.78
2022-08-12T19:34:47.119Z,94461.53
2022-08-12T19:37:38.510Z,94452.47
2022-08-12T19:40:32.555Z,94459.41
2022-08-12T19:43:17.886Z,94466.88
2022-08-12T19:45:51.453Z,94461.53
2022-08-12T19:48:19.224Z,94464.72
2022-08-12T19:50:50.457Z,94461.53
2022-08-12T19:53:23.433Z,94457.78
2022-08-12T19:55:54.021Z,94462.31
2022-08-12T19:58:23.698Z,94463.41
2022-08-12T20:00:52.847Z,94471.41
2022-08-12T20:03:39.320Z,94469.00
2022-08-12T20:06:24.436Z,94457.28
2022-08-12T20:08:57.313Z,94447.13
2022-08-12T20:12:14.725Z,94451.38
2022-08-12T20:14:17.937Z,94455.13
2022-08-12T20:16:52.338Z,94452.97
2022-08-12T20:19:52.718Z,94451.38
2022-08-12T20:22:14.398Z,94442.28
2022-08-12T20:24:42.057Z,94445.53
2022-08-12T20:27:10.386Z,94442.28
2022-08-12T20:29:57.153Z,94446.03
2022-08-12T20:32:29.454Z,94452.47
2022-08-12T20:34:56.545Z,94450.84
2022-08-12T20:38:07.372Z,94446.03
2022-08-12T20:40:13.845Z,94434.31
2022-08-12T20:42:41.773Z,94436.72
2022-08-12T20:45:11.424Z,94438.06
2022-08-12T20:47:46.390Z,94439.66
2022-08-12T20:50:14.171Z,94436.47
2022-08-12T20:52:41.228Z,94439.66
2022-08-12T20:55:15.785Z,94442.63
2022-08-12T20:58:01.800Z,94447.69
2022-08-12T21:00:29.896Z,94442.34
2022-08-12T21:03:16.512Z,94439.69
2022-08-12T21:06:11.780Z,94439.19
2022-08-12T21:08:39.837Z,94439.19
2022-08-12T21:11:07.037Z,94434.41
2022-08-12T21:13:39.213Z,94438.16
2022-08-12T21:16:09.779Z,94444.31
2022-08-12T21:18:37.977Z,94440.06
2022-08-12T21:21:06.628Z,94438.72
2022-08-12T21:23:37.054Z,94444.59
2022-08-12T21:26:11.436Z,94446.72
2022-08-12T21:28:58.217Z,94441.41
2022-08-12T21:32:36.573Z,94444.59
2022-08-12T21:34:17.973Z,94439.53
2022-08-12T21:36:48.582Z,94439.75
2022-08-12T21:39:21.908Z,94438.69
2022-08-12T21:41:52.097Z,94426.44
2022-08-12T21:44:23.983Z,94425.06
2022-08-12T21:47:19.587Z,94427.47
2022-08-12T21:49:53.773Z,94423.22
2022-08-12T21:52:34.259Z,94422.47
2022-08-12T21:55:19.704Z,94425.41
2022-08-12T21:57:53.756Z,94420.06
2022-08-12T22:00:32.113Z,94413.16
2022-08-12T22:04:03.591Z,94415.81
2022-08-12T22:06:25.980Z,94419.53
2022-08-12T22:09:02.233Z,94417.94
2022-08-12T22:11:41.958Z,94413.66
2022-08-12T22:14:10.345Z,94400.84
2022-08-12T22:16:48.674Z,94405.69
2022-08-12T22:19:22.671Z,94410.47
2022-08-12T22:21:53.145Z,94399.53
2022-08-12T22:24:26.750Z,94391.00
2022-08-12T22:27:18.167Z,94393.41
2022-08-12T22:30:06.117Z,94400.31
2022-08-12T22:32:33.859Z,94396.84
2022-08-12T22:35:22.164Z,94394.47
2022-08-12T22:37:51.053Z,94401.38
2022-08-12T22:40:20.397Z,94393.38
2022-08-12T22:43:06.081Z,94394.47
2022-08-12T22:45:56.594Z,94394.97
2022-08-12T22:48:26.536Z,94390.72
2022-08-12T22:50:56.501Z,94396.81
2022-08-12T22:53:26.530Z,94391.78
2022-08-12T22:56:06.350Z,94391.78
2022-08-12T22:58:40.512Z,94394.97
2022-08-12T23:01:08.470Z,94390.16
2022-08-12T23:03:49.660Z,94393.38
2022-08-12T23:06:19.565Z,94389.91
2022-08-12T23:08:46.458Z,94395.50
2022-08-12T23:11:14.676Z,94391.50
2022-08-12T23:13:47.281Z,94383.78
2022-08-12T23:16:28.128Z,94386.97
2022-08-12T23:19:01.715Z,94379.22
2022-08-12T23:22:06.456Z,94381.66
2022-08-12T23:24:33.024Z,94372.84
2022-08-12T23:27:20.410Z,94374.72
2022-08-12T23:29:59.409Z,94369.94
2022-08-12T23:32:37.474Z,94363.00
2022-08-12T23:35:06.783Z,94368.88
2022-08-12T23:37:47.389Z,94363.00
2022-08-12T23:40:22.021Z,94363.00
2022-08-12T23:42:49.267Z,94363.78
2022-08-12T23:45:20.707Z,94368.84
2022-08-12T23:48:00.912Z,94363.00
2022-08-12T23:50:34.249Z,94348.06
2022-08-12T23:53:06.607Z,94345.41
2022-08-12T23:55:45.647Z,94345.94
2022-08-12T23:58:22.528Z,94348.06
